Terminal Aerodrome Forecast
Issued by NWS Blacksburg, VA

Current Version | Previous Version | Graphics & Text | Print | Product List | Glossary On
Versions: 1 2 3 4 5 6 7 8 9 10 11 12 13 14 15 16 17 18 19 20 21 22 23 24 25 26 27 28 29 30 31 32 33 34 35 36 37
001
FTUS41 KRNK 270432 AAA
TAFBLF
TAF AMD
KBLF 270432Z 2705/2724 34010G20KT P6SM -SHRA BKN040 OVC070
     FM270600 25007KT 5SM -SHRA OVC020
     FM271500 26010G16KT P6SM -SHRA VCTS OVC025CB
      TEMPO 2717/2721 1SM +TSRA BR BKN005 OVC015CB=

USA.gov is the U.S. government's official web portal to all federal, state and local government web resources and services.